sensor_id;sensor_type;location;lat;lon;timestamp;temperature;humidity
16200;DHT22;8207;52.494;4.654;2023-03-01T00:01:00;0.90;99.90
16200;DHT22;8207;52.494;4.654;2023-03-01T00:03:28;0.90;99.90
16200;DHT22;8207;52.494;4.654;2023-03-01T00:05:54;0.90;99.90
16200;DHT22;8207;52.494;4.654;2023-03-01T00:08:21;1.00;99.90
16200;DHT22;8207;52.494;4.654;2023-03-01T00:10:48;1.00;99.90
16200;DHT22;8207;52.494;4.654;2023-03-01T00:13:15;1.00;99.90
16200;DHT22;8207;52.494;4.654;2023-03-01T00:15:43;1.00;99.90
16200;DHT22;8207;52.494;4.654;2023-03-01T00:18:10;1.00;99.90
16200;DHT22;8207;52.494;4.654;2023-03-01T00:20:37;1.00;99.90
16200;DHT22;8207;52.494;4.654;2023-03-01T00:23:04;1.00;99.90
16200;DHT22;8207;52.494;4.654;2023-03-01T00:25:31;1.00;99.90
16200;DHT22;8207;52.494;4.654;2023-03-01T00:27:58;0.90;99.90
16200;DHT22;8207;52.494;4.654;2023-03-01T00:30:25;0.90;99.90
16200;DHT22;8207;52.494;4.654;2023-03-01T00:32:53;0.80;99.90
16200;DHT22;8207;52.494;4.654;2023-03-01T00:35:20;0.80;99.90
16200;DHT22;8207;52.494;4.654;2023-03-01T00:37:48;0.80;99.90
16200;DHT22;8207;52.494;4.654;2023-03-01T00:40:19;0.70;99.90
16200;DHT22;8207;52.494;4.654;2023-03-01T00:42:45;0.70;99.90
16200;DHT22;8207;52.494;4.654;2023-03-01T00:45:12;0.70;99.90
16200;DHT22;8207;52.494;4.654;2023-03-01T00:47:39;0.60;99.90
16200;DHT22;8207;52.494;4.654;2023-03-01T00:50:09;0.50;99.90
16200;DHT22;8207;52.494;4.654;2023-03-01T00:52:36;0.50;99.90
16200;DHT22;8207;52.494;4.654;2023-03-01T00:55:04;0.50;99.90
16200;DHT22;8207;52.494;4.654;2023-03-01T00:57:31;0.40;99.90
16200;DHT22;8207;52.494;4.654;2023-03-01T00:59:59;0.40;99.90
16200;DHT22;8207;52.494;4.654;2023-03-01T01:02:26;0.40;99.90
16200;DHT22;8207;52.494;4.654;2023-03-01T01:04:52;0.30;99.90
16200;DHT22;8207;52.494;4.654;2023-03-01T01:07:21;0.30;99.90
16200;DHT22;8207;52.494;4.654;2023-03-01T01:09:48;0.30;99.90
16200;DHT22;8207;52.494;4.654;2023-03-01T01:12:15;0.20;99.90
16200;DHT22;8207;52.494;4.654;2023-03-01T01:14:41;0.20;99.90
16200;DHT22;8207;52.494;4.654;2023-03-01T01:17:08;0.10;99.90
16200;DHT22;8207;52.494;4.654;2023-03-01T01:19:35;0.10;99.90
16200;DHT22;8207;52.494;4.654;2023-03-01T01:22:02;0.10;99.90
16200;DHT22;8207;52.494;4.654;2023-03-01T01:24:31;0.10;99.90
16200;DHT22;8207;52.494;4.654;2023-03-01T01:26:58;0.10;99.90
16200;DHT22;8207;52.494;4.654;2023-03-01T01:29:25;0.00;99.90
16200;DHT22;8207;52.494;4.654;2023-03-01T01:31:51;0.00;99.90
16200;DHT22;8207;52.494;4.654;2023-03-01T01:34:20;0.00;99.90
16200;DHT22;8207;52.494;4.654;2023-03-01T01:36:48;0.00;99.90
16200;DHT22;8207;52.494;4.654;2023-03-01T01:39:16;0.00;99.90
16200;DHT22;8207;52.494;4.654;2023-03-01T01:41:45;-0.10;99.90
16200;DHT22;8207;52.494;4.654;2023-03-01T01:44:17;-0.10;99.90
16200;DHT22;8207;52.494;4.654;2023-03-01T01:46:47;-0.10;99.90
16200;DHT22;8207;52.494;4.654;2023-03-01T01:49:29;-0.10;99.90
16200;DHT22;8207;52.494;4.654;2023-03-01T01:52:02;-0.10;99.90
16200;DHT22;8207;52.494;4.654;2023-03-01T01:54:37;-0.20;99.90
16200;DHT22;8207;52.494;4.654;2023-03-01T01:57:10;-0.20;99.90
16200;DHT22;8207;52.494;4.654;2023-03-01T01:59:38;-0.20;99.90
16200;DHT22;8207;52.494;4.654;2023-03-01T02:02:07;-0.30;99.90
16200;DHT22;8207;52.494;4.654;2023-03-01T02:04:34;-0.30;99.90
16200;DHT22;8207;52.494;4.654;2023-03-01T02:07:05;-0.30;99.90
16200;DHT22;8207;52.494;4.654;2023-03-01T02:09:34;-0.30;99.90
16200;DHT22;8207;52.494;4.654;2023-03-01T02:12:02;-0.40;99.90
16200;DHT22;8207;52.494;4.654;2023-03-01T02:14:31;-0.40;99.90
16200;DHT22;8207;52.494;4.654;2023-03-01T02:16:58;-0.40;99.90
16200;DHT22;8207;52.494;4.654;2023-03-01T02:19:35;-0.40;99.90
16200;DHT22;8207;52.494;4.654;2023-03-01T02:22:13;-0.40;99.90
16200;DHT22;8207;52.494;4.654;2023-03-01T02:24:50;-0.50;99.90
16200;DHT22;8207;52.494;4.654;2023-03-01T02:27:23;-0.50;99.90
16200;DHT22;8207;52.494;4.654;2023-03-01T02:29:53;-0.40;99.90
16200;DHT22;8207;52.494;4.654;2023-03-01T02:32:20;-0.50;99.90
16200;DHT22;8207;52.494;4.654;2023-03-01T02:34:51;-0.50;99.90
16200;DHT22;8207;52.494;4.654;2023-03-01T02:37:19;-0.50;99.90
16200;DHT22;8207;52.494;4.654;2023-03-01T02:39:54;-0.50;99.90
16200;DHT22;8207;52.494;4.654;2023-03-01T02:42:26;-0.50;99.90
16200;DHT22;8207;52.494;4.654;2023-03-01T02:44:56;-0.60;99.90
16200;DHT22;8207;52.494;4.654;2023-03-01T02:47:23;-0.60;99.90
16200;DHT22;8207;52.494;4.654;2023-03-01T02:49:50;-0.60;99.90
16200;DHT22;8207;52.494;4.654;2023-03-01T02:52:30;-0.60;99.90
16200;DHT22;8207;52.494;4.654;2023-03-01T02:55:03;-0.60;99.90
16200;DHT22;8207;52.494;4.654;2023-03-01T02:57:34;-0.70;99.90
16200;DHT22;8207;52.494;4.654;2023-03-01T03:00:06;-0.70;99.90
16200;DHT22;8207;52.494;4.654;2023-03-01T03:02:34;-0.70;99.90
16200;DHT22;8207;52.494;4.654;2023-03-01T03:05:07;-0.70;99.90
16200;DHT22;8207;52.494;4.654;2023-03-01T03:07:35;-0.70;99.90
16200;DHT22;8207;52.494;4.654;2023-03-01T03:10:05;-0.70;99.90
16200;DHT22;8207;52.494;4.654;2023-03-01T03:12:32;-0.80;99.90
16200;DHT22;8207;52.494;4.654;2023-03-01T03:14:59;-0.80;99.90
16200;DHT22;8207;52.494;4.654;2023-03-01T03:17:27;-0.80;99.90
16200;DHT22;8207;52.494;4.654;2023-03-01T03:19:54;-0.80;99.90
16200;DHT22;8207;52.494;4.654;2023-03-01T03:22:21;-0.80;99.90
16200;DHT22;8207;52.494;4.654;2023-03-01T03:24:48;-0.80;99.90
16200;DHT22;8207;52.494;4.654;2023-03-01T03:27:15;-0.90;99.90
16200;DHT22;8207;52.494;4.654;2023-03-01T03:29:42;-0.90;99.90
16200;DHT22;8207;52.494;4.654;2023-03-01T03:32:09;-0.90;99.90
16200;DHT22;8207;52.494;4.654;2023-03-01T03:34:37;-0.90;99.90
16200;DHT22;8207;52.494;4.654;2023-03-01T03:37:04;-0.90;99.90
16200;DHT22;8207;52.494;4.654;2023-03-01T03:39:50;-0.90;99.90
16200;DHT22;8207;52.494;4.654;2023-03-01T03:42:20;-0.90;99.90
16200;DHT22;8207;52.494;4.654;2023-03-01T03:44:48;-0.90;99.90
16200;DHT22;8207;52.494;4.654;2023-03-01T03:47:14;-0.90;99.90
16200;DHT22;8207;52.494;4.654;2023-03-01T03:49:43;-1.00;99.90
16200;DHT22;8207;52.494;4.654;2023-03-01T03:52:10;-1.00;99.90
16200;DHT22;8207;52.494;4.654;2023-03-01T03:54:39;-1.00;99.90
16200;DHT22;8207;52.494;4.654;2023-03-01T03:57:06;-1.00;99.90
16200;DHT22;8207;52.494;4.654;2023-03-01T03:59:33;-1.00;99.90
16200;DHT22;8207;52.494;4.654;2023-03-01T04:02:00;-1.00;99.90
16200;DHT22;8207;52.494;4.654;2023-03-01T04:04:27;-1.00;99.90
16200;DHT22;8207;52.494;4.654;2023-03-01T04:06:55;-1.00;99.90
16200;DHT22;8207;52.494;4.654;2023-03-01T04:09:22;-1.00;99.90
16200;DHT22;8207;52.494;4.654;2023-03-01T04:11:49;-1.10;99.90
16200;DHT22;8207;52.494;4.654;2023-03-01T04:14:16;-1.10;99.90
16200;DHT22;8207;52.494;4.654;2023-03-01T04:16:43;-1.10;99.90
16200;DHT22;8207;52.494;4.654;2023-03-01T04:19:09;-1.10;99.90
16200;DHT22;8207;52.494;4.654;2023-03-01T04:21:36;-1.10;99.90
16200;DHT22;8207;52.494;4.654;2023-03-01T04:24:05;-1.10;99.90
16200;DHT22;8207;52.494;4.654;2023-03-01T04:26:32;-1.10;99.90
16200;DHT22;8207;52.494;4.654;2023-03-01T04:28:59;-1.10;99.90
16200;DHT22;8207;52.494;4.654;2023-03-01T04:31:26;-1.10;99.90
16200;DHT22;8207;52.494;4.654;2023-03-01T04:33:54;-1.10;99.90
16200;DHT22;8207;52.494;4.654;2023-03-01T04:36:23;-1.10;99.90
16200;DHT22;8207;52.494;4.654;2023-03-01T04:38:51;-1.10;99.90
16200;DHT22;8207;52.494;4.654;2023-03-01T04:41:20;-1.20;99.90
16200;DHT22;8207;52.494;4.654;2023-03-01T04:43:48;-1.20;99.90
16200;DHT22;8207;52.494;4.654;2023-03-01T04:46:16;-1.20;99.90
16200;DHT22;8207;52.494;4.654;2023-03-01T04:48:44;-1.20;99.90
16200;DHT22;8207;52.494;4.654;2023-03-01T04:51:12;-1.20;99.90
16200;DHT22;8207;52.494;4.654;2023-03-01T04:53:40;-1.30;99.90
16200;DHT22;8207;52.494;4.654;2023-03-01T04:56:07;-1.30;99.90
16200;DHT22;8207;52.494;4.654;2023-03-01T04:58:35;-1.30;99.90
16200;DHT22;8207;52.494;4.654;2023-03-01T05:01:08;-1.30;99.90
16200;DHT22;8207;52.494;4.654;2023-03-01T05:03:41;-1.30;99.90
16200;DHT22;8207;52.494;4.654;2023-03-01T05:06:08;-1.30;99.90
16200;DHT22;8207;52.494;4.654;2023-03-01T05:08:36;-1.30;99.90
16200;DHT22;8207;52.494;4.654;2023-03-01T05:11:04;-1.40;99.90
16200;DHT22;8207;52.494;4.654;2023-03-01T05:13:36;-1.40;99.90
16200;DHT22;8207;52.494;4.654;2023-03-01T05:16:05;-1.40;99.90
16200;DHT22;8207;52.494;4.654;2023-03-01T05:18:37;-1.40;99.90
16200;DHT22;8207;52.494;4.654;2023-03-01T05:21:05;-1.40;99.90
16200;DHT22;8207;52.494;4.654;2023-03-01T05:23:33;-1.40;99.90
16200;DHT22;8207;52.494;4.654;2023-03-01T05:26:01;-1.40;99.90
16200;DHT22;8207;52.494;4.654;2023-03-01T05:28:29;-1.40;99.90
16200;DHT22;8207;52.494;4.654;2023-03-01T05:30:58;-1.40;99.90
16200;DHT22;8207;52.494;4.654;2023-03-01T05:33:25;-1.40;99.90
16200;DHT22;8207;52.494;4.654;2023-03-01T05:35:52;-1.50;99.90
16200;DHT22;8207;52.494;4.654;2023-03-01T05:38:20;-1.50;99.90
16200;DHT22;8207;52.494;4.654;2023-03-01T05:40:48;-1.50;99.90
16200;DHT22;8207;52.494;4.654;2023-03-01T05:43:16;-1.40;99.90
16200;DHT22;8207;52.494;4.654;2023-03-01T05:45:44;-1.40;99.90
16200;DHT22;8207;52.494;4.654;2023-03-01T05:48:13;-1.40;99.90
16200;DHT22;8207;52.494;4.654;2023-03-01T05:50:42;-1.40;99.90
16200;DHT22;8207;52.494;4.654;2023-03-01T05:53:11;-1.40;99.90
16200;DHT22;8207;52.494;4.654;2023-03-01T05:55:39;-1.40;99.90
16200;DHT22;8207;52.494;4.654;2023-03-01T05:58:07;-1.40;99.90
16200;DHT22;8207;52.494;4.654;2023-03-01T06:00:36;-1.40;99.90
16200;DHT22;8207;52.494;4.654;2023-03-01T06:03:03;-1.40;99.90
16200;DHT22;8207;52.494;4.654;2023-03-01T06:05:31;-1.50;99.90
16200;DHT22;8207;52.494;4.654;2023-03-01T06:07:59;-1.50;99.90
16200;DHT22;8207;52.494;4.654;2023-03-01T06:10:26;-1.50;99.90
16200;DHT22;8207;52.494;4.654;2023-03-01T06:12:53;-1.50;99.90
16200;DHT22;8207;52.494;4.654;2023-03-01T06:15:21;-1.50;99.90
16200;DHT22;8207;52.494;4.654;2023-03-01T06:17:48;-1.50;99.90
16200;DHT22;8207;52.494;4.654;2023-03-01T06:20:16;-1.50;99.90
16200;DHT22;8207;52.494;4.654;2023-03-01T06:22:46;-1.50;99.90
16200;DHT22;8207;52.494;4.654;2023-03-01T06:25:16;-1.40;99.90
16200;DHT22;8207;52.494;4.654;2023-03-01T06:27:43;-1.40;99.90
16200;DHT22;8207;52.494;4.654;2023-03-01T06:30:12;-1.40;99.90
16200;DHT22;8207;52.494;4.654;2023-03-01T06:32:39;-1.40;99.90
16200;DHT22;8207;52.494;4.654;2023-03-01T06:35:07;-1.40;99.90
16200;DHT22;8207;52.494;4.654;2023-03-01T06:37:34;-1.40;99.90
16200;DHT22;8207;52.494;4.654;2023-03-01T06:40:03;-1.40;99.90
16200;DHT22;8207;52.494;4.654;2023-03-01T06:42:34;-1.40;99.90
16200;DHT22;8207;52.494;4.654;2023-03-01T06:45:00;-1.40;99.90
16200;DHT22;8207;52.494;4.654;2023-03-01T06:47:27;-1.40;99.90
16200;DHT22;8207;52.494;4.654;2023-03-01T06:49:54;-1.30;99.90
16200;DHT22;8207;52.494;4.654;2023-03-01T06:52:21;-1.30;99.90
16200;DHT22;8207;52.494;4.654;2023-03-01T06:54:48;-1.20;99.90
16200;DHT22;8207;52.494;4.654;2023-03-01T06:57:16;-1.20;99.90
16200;DHT22;8207;52.494;4.654;2023-03-01T06:59:43;-1.20;99.90
16200;DHT22;8207;52.494;4.654;2023-03-01T07:02:10;-1.20;99.90
16200;DHT22;8207;52.494;4.654;2023-03-01T07:04:38;-1.20;99.90
16200;DHT22;8207;52.494;4.654;2023-03-01T07:07:05;-1.20;99.90
16200;DHT22;8207;52.494;4.654;2023-03-01T07:09:32;-1.20;99.90
16200;DHT22;8207;52.494;4.654;2023-03-01T07:11:59;-1.20;99.90
16200;DHT22;8207;52.494;4.654;2023-03-01T07:14:27;-1.10;99.90
16200;DHT22;8207;52.494;4.654;2023-03-01T07:16:54;-1.10;99.90
16200;DHT22;8207;52.494;4.654;2023-03-01T07:19:21;-1.10;99.90
16200;DHT22;8207;52.494;4.654;2023-03-01T07:21:48;-1.00;99.90
16200;DHT22;8207;52.494;4.654;2023-03-01T07:24:15;-1.00;99.90
16200;DHT22;8207;52.494;4.654;2023-03-01T07:26:42;-1.00;99.90
16200;DHT22;8207;52.494;4.654;2023-03-01T07:29:10;-0.90;99.90
16200;DHT22;8207;52.494;4.654;2023-03-01T07:31:38;-0.90;99.90
16200;DHT22;8207;52.494;4.654;2023-03-01T07:34:05;-0.80;99.90
16200;DHT22;8207;52.494;4.654;2023-03-01T07:36:32;-0.70;99.90
16200;DHT22;8207;52.494;4.654;2023-03-01T07:38:59;-0.70;99.90
16200;DHT22;8207;52.494;4.654;2023-03-01T07:41:28;-0.60;99.90
16200;DHT22;8207;52.494;4.654;2023-03-01T07:43:55;-0.50;99.90
16200;DHT22;8207;52.494;4.654;2023-03-01T07:46:21;-0.50;99.90
16200;DHT22;8207;52.494;4.654;2023-03-01T07:48:50;-0.40;99.90
16200;DHT22;8207;52.494;4.654;2023-03-01T07:51:17;-0.30;99.90
16200;DHT22;8207;52.494;4.654;2023-03-01T07:53:45;-0.30;99.90
16200;DHT22;8207;52.494;4.654;2023-03-01T07:56:14;-0.20;99.90
16200;DHT22;8207;52.494;4.654;2023-03-01T07:58:43;-0.10;99.90
16200;DHT22;8207;52.494;4.654;2023-03-01T08:01:14;0.10;99.90
16200;DHT22;8207;52.494;4.654;2023-03-01T08:03:41;0.20;99.90
16200;DHT22;8207;52.494;4.654;2023-03-01T08:06:11;0.30;99.90
16200;DHT22;8207;52.494;4.654;2023-03-01T08:08:38;0.50;99.90
16200;DHT22;8207;52.494;4.654;2023-03-01T08:11:06;0.60;99.90
16200;DHT22;8207;52.494;4.654;2023-03-01T08:13:34;0.70;99.90
16200;DHT22;8207;52.494;4.654;2023-03-01T08:16:01;0.70;99.90
16200;DHT22;8207;52.494;4.654;2023-03-01T08:18:28;0.80;99.90
16200;DHT22;8207;52.494;4.654;2023-03-01T08:20:56;0.90;99.90
16200;DHT22;8207;52.494;4.654;2023-03-01T08:23:29;1.00;99.90
16200;DHT22;8207;52.494;4.654;2023-03-01T08:26:03;1.10;99.90
16200;DHT22;8207;52.494;4.654;2023-03-01T08:28:30;1.20;99.90
16200;DHT22;8207;52.494;4.654;2023-03-01T08:30:57;1.20;99.90
16200;DHT22;8207;52.494;4.654;2023-03-01T08:33:24;1.30;99.90
16200;DHT22;8207;52.494;4.654;2023-03-01T08:35:51;1.40;99.90
16200;DHT22;8207;52.494;4.654;2023-03-01T08:38:18;1.50;99.90
16200;DHT22;8207;52.494;4.654;2023-03-01T08:40:46;1.60;99.90
16200;DHT22;8207;52.494;4.654;2023-03-01T08:43:13;1.70;99.90
16200;DHT22;8207;52.494;4.654;2023-03-01T08:45:40;1.70;99.90
16200;DHT22;8207;52.494;4.654;2023-03-01T08:48:07;1.80;99.90
16200;DHT22;8207;52.494;4.654;2023-03-01T08:50:34;1.90;99.90
16200;DHT22;8207;52.494;4.654;2023-03-01T08:53:00;1.90;99.90
16200;DHT22;8207;52.494;4.654;2023-03-01T08:55:27;2.00;99.90
16200;DHT22;8207;52.494;4.654;2023-03-01T08:57:56;2.00;99.90
16200;DHT22;8207;52.494;4.654;2023-03-01T09:00:24;2.10;99.90
16200;DHT22;8207;52.494;4.654;2023-03-01T09:02:51;2.10;99.90
16200;DHT22;8207;52.494;4.654;2023-03-01T09:05:18;2.30;99.90
16200;DHT22;8207;52.494;4.654;2023-03-01T09:07:45;2.40;99.90
16200;DHT22;8207;52.494;4.654;2023-03-01T09:10:12;2.40;99.90
16200;DHT22;8207;52.494;4.654;2023-03-01T09:12:39;2.50;99.90
16200;DHT22;8207;52.494;4.654;2023-03-01T09:15:08;2.60;99.90
16200;DHT22;8207;52.494;4.654;2023-03-01T09:17:35;2.70;99.90
16200;DHT22;8207;52.494;4.654;2023-03-01T09:20:03;2.80;99.90
16200;DHT22;8207;52.494;4.654;2023-03-01T09:22:33;2.90;99.90
16200;DHT22;8207;52.494;4.654;2023-03-01T09:25:00;3.00;99.90
16200;DHT22;8207;52.494;4.654;2023-03-01T09:27:27;3.10;99.90
16200;DHT22;8207;52.494;4.654;2023-03-01T09:29:54;3.30;99.90
16200;DHT22;8207;52.494;4.654;2023-03-01T09:32:23;3.40;99.90
16200;DHT22;8207;52.494;4.654;2023-03-01T09:34:50;3.50;99.90
16200;DHT22;8207;52.494;4.654;2023-03-01T09:37:30;3.60;99.90
16200;DHT22;8207;52.494;4.654;2023-03-01T09:39:58;3.70;99.90
16200;DHT22;8207;52.494;4.654;2023-03-01T09:42:25;3.90;99.90
16200;DHT22;8207;52.494;4.654;2023-03-01T09:44:57;4.00;99.90
16200;DHT22;8207;52.494;4.654;2023-03-01T09:47:30;4.10;99.90
16200;DHT22;8207;52.494;4.654;2023-03-01T09:50:02;4.10;99.90
16200;DHT22;8207;52.494;4.654;2023-03-01T09:52:36;4.10;99.90
16200;DHT22;8207;52.494;4.654;2023-03-01T09:55:10;4.20;99.90
16200;DHT22;8207;52.494;4.654;2023-03-01T09:57:43;4.20;99.90
16200;DHT22;8207;52.494;4.654;2023-03-01T10:00:29;4.20;99.90
16200;DHT22;8207;52.494;4.654;2023-03-01T10:03:02;4.30;99.90
16200;DHT22;8207;52.494;4.654;2023-03-01T10:05:41;4.40;99.90
16200;DHT22;8207;52.494;4.654;2023-03-01T10:08:29;4.50;99.90
16200;DHT22;8207;52.494;4.654;2023-03-01T10:10:59;4.60;99.90
16200;DHT22;8207;52.494;4.654;2023-03-01T10:13:31;4.60;99.90
16200;DHT22;8207;52.494;4.654;2023-03-01T10:16:05;4.70;99.90
16200;DHT22;8207;52.494;4.654;2023-03-01T10:18:38;4.80;99.90
16200;DHT22;8207;52.494;4.654;2023-03-01T10:21:14;4.90;99.90
16200;DHT22;8207;52.494;4.654;2023-03-01T10:23:43;5.00;99.90
16200;DHT22;8207;52.494;4.654;2023-03-01T10:26:23;5.00;99.90
16200;DHT22;8207;52.494;4.654;2023-03-01T10:29:00;5.10;99.90
16200;DHT22;8207;52.494;4.654;2023-03-01T10:31:35;5.30;99.90
16200;DHT22;8207;52.494;4.654;2023-03-01T10:34:08;5.40;99.90
16200;DHT22;8207;52.494;4.654;2023-03-01T10:36:38;5.40;99.90
16200;DHT22;8207;52.494;4.654;2023-03-01T10:39:13;5.50;99.90
16200;DHT22;8207;52.494;4.654;2023-03-01T10:41:53;5.60;99.90
16200;DHT22;8207;52.494;4.654;2023-03-01T10:44:36;5.70;99.90
16200;DHT22;8207;52.494;4.654;2023-03-01T10:47:04;5.70;99.90
16200;DHT22;8207;52.494;4.654;2023-03-01T10:49:34;5.80;99.90
16200;DHT22;8207;52.494;4.654;2023-03-01T10:52:18;6.00;99.90
16200;DHT22;8207;52.494;4.654;2023-03-01T10:54:52;6.10;99.90
16200;DHT22;8207;52.494;4.654;2023-03-01T10:57:32;6.10;99.90
16200;DHT22;8207;52.494;4.654;2023-03-01T11:00:23;6.20;99.90
16200;DHT22;8207;52.494;4.654;2023-03-01T11:03:02;6.30;99.90
16200;DHT22;8207;52.494;4.654;2023-03-01T11:05:31;6.40;99.90
16200;DHT22;8207;52.494;4.654;2023-03-01T11:08:00;6.50;99.90
16200;DHT22;8207;52.494;4.654;2023-03-01T11:10:30;6.60;99.90
16200;DHT22;8207;52.494;4.654;2023-03-01T11:13:09;6.70;99.90
16200;DHT22;8207;52.494;4.654;2023-03-01T11:15:39;6.70;99.90
16200;DHT22;8207;52.494;4.654;2023-03-01T11:18:18;6.70;99.90
16200;DHT22;8207;52.494;4.654;2023-03-01T11:20:48;6.70;99.90
16200;DHT22;8207;52.494;4.654;2023-03-01T11:23:16;6.80;99.90
16200;DHT22;8207;52.494;4.654;2023-03-01T11:25:47;6.90;99.90
16200;DHT22;8207;52.494;4.654;2023-03-01T11:28:17;6.90;99.90
16200;DHT22;8207;52.494;4.654;2023-03-01T11:30:48;7.00;99.90
16200;DHT22;8207;52.494;4.654;2023-03-01T11:33:20;7.00;99.90
16200;DHT22;8207;52.494;4.654;2023-03-01T11:35:57;7.10;99.90
16200;DHT22;8207;52.494;4.654;2023-03-01T11:38:27;7.10;99.90
16200;DHT22;8207;52.494;4.654;2023-03-01T11:41:00;7.40;99.90
16200;DHT22;8207;52.494;4.654;2023-03-01T11:43:36;7.40;99.90
16200;DHT22;8207;52.494;4.654;2023-03-01T11:46:24;7.60;99.90
16200;DHT22;8207;52.494;4.654;2023-03-01T11:49:09;7.60;99.90
16200;DHT22;8207;52.494;4.654;2023-03-01T11:51:50;7.80;99.90
16200;DHT22;8207;52.494;4.654;2023-03-01T11:54:30;7.90;99.90
16200;DHT22;8207;52.494;4.654;2023-03-01T11:57:04;7.90;99.90
16200;DHT22;8207;52.494;4.654;2023-03-01T11:59:59;7.90;99.90
16200;DHT22;8207;52.494;4.654;2023-03-01T12:02:43;7.90;99.90
16200;DHT22;8207;52.494;4.654;2023-03-01T12:08:14;7.80;99.90
16200;DHT22;8207;52.494;4.654;2023-03-01T12:10:51;7.80;99.90
16200;DHT22;8207;52.494;4.654;2023-03-01T12:13:44;7.90;99.90
16200;DHT22;8207;52.494;4.654;2023-03-01T12:16:24;8.00;99.90
16200;DHT22;8207;52.494;4.654;2023-03-01T12:19:29;8.00;99.90
16200;DHT22;8207;52.494;4.654;2023-03-01T12:22:12;8.00;99.90
16200;DHT22;8207;52.494;4.654;2023-03-01T12:25:00;8.00;99.90
16200;DHT22;8207;52.494;4.654;2023-03-01T12:27:47;7.90;99.90
16200;DHT22;8207;52.494;4.654;2023-03-01T12:30:25;7.90;99.90
16200;DHT22;8207;52.494;4.654;2023-03-01T12:38:41;8.00;99.90
16200;DHT22;8207;52.494;4.654;2023-03-01T12:41:35;8.10;99.90
16200;DHT22;8207;52.494;4.654;2023-03-01T12:44:13;8.20;99.90
16200;DHT22;8207;52.494;4.654;2023-03-01T12:46:52;8.20;99.90
16200;DHT22;8207;52.494;4.654;2023-03-01T12:49:28;8.20;99.90
16200;DHT22;8207;52.494;4.654;2023-03-01T12:52:03;8.20;99.90
16200;DHT22;8207;52.494;4.654;2023-03-01T12:54:36;8.20;99.90
16200;DHT22;8207;52.494;4.654;2023-03-01T12:57:09;8.30;99.90
16200;DHT22;8207;52.494;4.654;2023-03-01T12:59:41;8.40;99.90
16200;DHT22;8207;52.494;4.654;2023-03-01T13:02:16;8.40;99.90
16200;DHT22;8207;52.494;4.654;2023-03-01T13:05:00;8.50;99.90
16200;DHT22;8207;52.494;4.654;2023-03-01T13:07:37;8.60;99.90
16200;DHT22;8207;52.494;4.654;2023-03-01T13:10:20;8.50;99.90
16200;DHT22;8207;52.494;4.654;2023-03-01T13:13:02;8.40;99.90
16200;DHT22;8207;52.494;4.654;2023-03-01T13:15:33;8.40;99.90
16200;DHT22;8207;52.494;4.654;2023-03-01T13:18:02;8.30;99.90
16200;DHT22;8207;52.494;4.654;2023-03-01T13:20:33;8.40;99.90
16200;DHT22;8207;52.494;4.654;2023-03-01T13:23:07;8.50;99.90
16200;DHT22;8207;52.494;4.654;2023-03-01T13:25:35;8.50;99.90
16200;DHT22;8207;52.494;4.654;2023-03-01T13:28:45;8.40;99.90
16200;DHT22;8207;52.494;4.654;2023-03-01T13:34:41;8.40;99.90
16200;DHT22;8207;52.494;4.654;2023-03-01T13:37:25;8.40;99.90
16200;DHT22;8207;52.494;4.654;2023-03-01T13:39:56;8.40;99.90
16200;DHT22;8207;52.494;4.654;2023-03-01T13:42:43;8.30;99.90
16200;DHT22;8207;52.494;4.654;2023-03-01T13:45:25;8.20;99.90
16200;DHT22;8207;52.494;4.654;2023-03-01T13:48:02;8.30;99.90
16200;DHT22;8207;52.494;4.654;2023-03-01T13:50:33;8.30;99.90
16200;DHT22;8207;52.494;4.654;2023-03-01T13:53:05;8.30;99.90
16200;DHT22;8207;52.494;4.654;2023-03-01T13:55:37;8.20;99.90
16200;DHT22;8207;52.494;4.654;2023-03-01T13:58:16;8.20;99.90
16200;DHT22;8207;52.494;4.654;2023-03-01T14:00:47;8.20;99.90
16200;DHT22;8207;52.494;4.654;2023-03-01T14:03:15;8.10;99.90
16200;DHT22;8207;52.494;4.654;2023-03-01T14:05:57;8.20;99.90
16200;DHT22;8207;52.494;4.654;2023-03-01T14:08:27;8.10;99.90
16200;DHT22;8207;52.494;4.654;2023-03-01T14:11:13;8.10;99.90
16200;DHT22;8207;52.494;4.654;2023-03-01T14:14:16;8.00;99.90
16200;DHT22;8207;52.494;4.654;2023-03-01T14:16:53;8.00;99.90
16200;DHT22;8207;52.494;4.654;2023-03-01T14:19:26;7.80;99.90
16200;DHT22;8207;52.494;4.654;2023-03-01T14:22:00;7.70;99.90
16200;DHT22;8207;52.494;4.654;2023-03-01T14:24:30;7.70;99.90
16200;DHT22;8207;52.494;4.654;2023-03-01T14:27:00;7.60;99.90
16200;DHT22;8207;52.494;4.654;2023-03-01T14:29:34;7.70;99.90
16200;DHT22;8207;52.494;4.654;2023-03-01T14:32:11;7.70;99.90
16200;DHT22;8207;52.494;4.654;2023-03-01T14:34:43;7.70;99.90
16200;DHT22;8207;52.494;4.654;2023-03-01T14:37:17;7.70;99.90
16200;DHT22;8207;52.494;4.654;2023-03-01T14:39:44;7.70;99.90
16200;DHT22;8207;52.494;4.654;2023-03-01T14:42:12;7.70;99.90
16200;DHT22;8207;52.494;4.654;2023-03-01T14:44:41;7.60;99.90
16200;DHT22;8207;52.494;4.654;2023-03-01T14:47:13;7.60;99.90
16200;DHT22;8207;52.494;4.654;2023-03-01T14:49:42;7.50;99.90
16200;DHT22;8207;52.494;4.654;2023-03-01T14:52:19;7.50;99.90
16200;DHT22;8207;52.494;4.654;2023-03-01T14:54:48;7.50;99.90
16200;DHT22;8207;52.494;4.654;2023-03-01T14:57:18;7.50;99.90
16200;DHT22;8207;52.494;4.654;2023-03-01T14:59:47;7.50;99.90
16200;DHT22;8207;52.494;4.654;2023-03-01T15:02:19;7.60;99.90
16200;DHT22;8207;52.494;4.654;2023-03-01T15:04:48;7.50;99.90
16200;DHT22;8207;52.494;4.654;2023-03-01T15:07:15;7.50;99.90
16200;DHT22;8207;52.494;4.654;2023-03-01T15:09:43;7.50;99.90
16200;DHT22;8207;52.494;4.654;2023-03-01T15:12:40;7.50;99.90
16200;DHT22;8207;52.494;4.654;2023-03-01T15:15:32;7.40;99.90
16200;DHT22;8207;52.494;4.654;2023-03-01T15:18:04;7.40;99.90
16200;DHT22;8207;52.494;4.654;2023-03-01T15:20:32;7.40;99.90
16200;DHT22;8207;52.494;4.654;2023-03-01T15:23:02;7.40;99.90
16200;DHT22;8207;52.494;4.654;2023-03-01T15:25:31;7.40;99.90
16200;DHT22;8207;52.494;4.654;2023-03-01T15:28:00;7.40;99.90
16200;DHT22;8207;52.494;4.654;2023-03-01T15:30:30;7.40;99.90
16200;DHT22;8207;52.494;4.654;2023-03-01T15:33:31;7.50;99.90
16200;DHT22;8207;52.494;4.654;2023-03-01T15:35:59;7.40;99.90
16200;DHT22;8207;52.494;4.654;2023-03-01T15:38:29;7.40;99.90
16200;DHT22;8207;52.494;4.654;2023-03-01T15:40:58;7.40;99.90
16200;DHT22;8207;52.494;4.654;2023-03-01T15:43:43;7.30;99.90
16200;DHT22;8207;52.494;4.654;2023-03-01T15:46:20;7.30;99.90
16200;DHT22;8207;52.494;4.654;2023-03-01T15:48:52;7.30;99.90
16200;DHT22;8207;52.494;4.654;2023-03-01T15:51:26;7.20;99.90
16200;DHT22;8207;52.494;4.654;2023-03-01T15:53:54;7.20;99.90
16200;DHT22;8207;52.494;4.654;2023-03-01T15:56:23;7.20;99.90
16200;DHT22;8207;52.494;4.654;2023-03-01T15:58:50;7.10;99.90
16200;DHT22;8207;52.494;4.654;2023-03-01T16:01:17;7.10;99.90
16200;DHT22;8207;52.494;4.654;2023-03-01T16:03:44;7.10;99.90
16200;DHT22;8207;52.494;4.654;2023-03-01T16:06:13;7.10;99.90
16200;DHT22;8207;52.494;4.654;2023-03-01T16:08:40;7.10;99.90
16200;DHT22;8207;52.494;4.654;2023-03-01T16:11:14;7.10;99.90
16200;DHT22;8207;52.494;4.654;2023-03-01T16:13:43;7.10;99.90
16200;DHT22;8207;52.494;4.654;2023-03-01T16:16:10;7.00;99.90
16200;DHT22;8207;52.494;4.654;2023-03-01T16:18:41;7.00;99.90
16200;DHT22;8207;52.494;4.654;2023-03-01T16:21:14;7.00;99.90
16200;DHT22;8207;52.494;4.654;2023-03-01T16:23:43;7.00;99.90
16200;DHT22;8207;52.494;4.654;2023-03-01T16:26:11;7.00;99.90
16200;DHT22;8207;52.494;4.654;2023-03-01T16:28:39;6.90;99.90
16200;DHT22;8207;52.494;4.654;2023-03-01T16:31:06;6.90;99.90